Forside
METAR-TAF:

METAR-TAF

Lufthavne :

Calais, Frankrig

Breddekreds: 50-57-39N, længdekreds: 001-57-05E, højde: 4 m

Aktuelle vejr

Denne rapport blev lavet for 4 timer og 52 minutter siden, kl. 20:00 UTC
Vind 7 kt fra sydvest
Temperatur 14°C
Fugtighed 77%
Tryk 1032 hPa
Sigt 10 km eller mere
ingen skyer under 1500m og ingen cumulonimbus

METAR: LFAC 242000Z AUTO 23007KT CAVOK 14/10 Q1032

Tid: 02:52 (00:52 UTC)


TAF: fraværende

Vejrobservationer og prognoser fra mere end 4000 lufthavne (METAR og TAF).

De gule og røde prikker repræsenterer de meteorologiske stationer.

Flyt musen over at se navnet på stationen.

Så klik over at se vejr observationer og prognoser.

At skifte det kort: Klik på de grønne knapper med et sort kors for at zoome ind; på den grønne knap med en bindestreg for at zoome ud; eller på de grønne pile for tilstødende kort.


METAR-TAF: